createdAt,value
2023-05-21T00:01:08.029Z,101091.01
2023-05-21T00:03:36.242Z,101087.94
2023-05-21T00:06:03.902Z,101084.91
2023-05-21T00:08:31.195Z,101087.16
2023-05-21T00:10:57.958Z,101088.42
2023-05-21T00:13:24.574Z,101085.39
2023-05-21T00:15:51.542Z,101087.42
2023-05-21T00:18:18.290Z,101082.70
2023-05-21T00:20:45.861Z,101079.55
2023-05-21T00:23:12.528Z,101081.88
2023-05-21T00:25:39.271Z,101080.41
2023-05-21T00:28:05.841Z,101077.73
2023-05-21T00:30:32.446Z,101079.22
2023-05-21T00:33:02.960Z,101076.94
2023-05-21T00:35:30.117Z,101079.45
2023-05-21T00:37:57.335Z,101077.96
2023-05-21T00:40:24.270Z,101079.55
2023-05-21T00:42:50.917Z,101076.89
2023-05-21T00:45:17.570Z,101077.02
2023-05-21T00:47:45.158Z,101080.08
2023-05-21T00:50:11.974Z,101078.15
2023-05-21T00:52:41.935Z,101080.08
2023-05-21T00:55:09.984Z,101081.42
2023-05-21T00:57:37.202Z,101079.70
2023-05-21T01:00:09.051Z,101080.00
2023-05-21T01:02:37.465Z,101076.35
2023-05-21T01:05:06.180Z,101077.83
2023-05-21T01:07:39.043Z,101078.05
2023-05-21T01:10:08.518Z,101078.39
2023-05-21T01:12:37.940Z,101077.45
2023-05-21T01:15:05.533Z,101080.76
2023-05-21T01:17:34.398Z,101083.58
2023-05-21T01:20:02.128Z,101085.48
2023-05-21T01:22:32.523Z,101086.23
2023-05-21T01:25:05.218Z,101085.08
2023-05-21T01:27:33.705Z,101080.13
2023-05-21T01:30:00.877Z,101077.73
2023-05-21T01:33:04.046Z,101079.63
2023-05-21T01:35:53.943Z,101078.35
2023-05-21T01:38:28.796Z,101079.67
2023-05-21T01:41:00.360Z,101078.58
2023-05-21T01:43:29.957Z,101078.77
2023-05-21T01:45:57.361Z,101077.52
2023-05-21T01:48:27.344Z,101074.96
2023-05-21T01:50:55.896Z,101074.52
2023-05-21T01:53:22.616Z,101070.87
2023-05-21T01:55:49.595Z,101066.85
2023-05-21T01:58:17.216Z,101065.48
2023-05-21T02:00:45.486Z,101071.14
2023-05-21T02:03:13.743Z,101070.83
2023-05-21T02:05:41.155Z,101071.16
2023-05-21T02:08:08.532Z,101073.34
2023-05-21T02:10:36.386Z,101073.04
2023-05-21T02:13:03.440Z,101075.98
2023-05-21T02:18:46.471Z,101078.15
2023-05-21T02:21:13.282Z,101081.89
2023-05-21T02:23:41.835Z,101081.42
2023-05-21T02:26:08.687Z,101080.19
2023-05-21T02:28:36.409Z,101077.86
2023-05-21T02:31:03.242Z,101076.02
2023-05-21T02:33:29.868Z,101074.39
2023-05-21T02:35:56.503Z,101074.23
2023-05-21T02:38:25.887Z,101073.90
2023-05-21T02:40:53.194Z,101071.92
2023-05-21T02:43:20.176Z,101070.02
2023-05-21T02:45:46.822Z,101072.27
2023-05-21T02:48:14.402Z,101072.61
2023-05-21T02:50:41.314Z,101071.23
2023-05-21T02:53:08.181Z,101063.92
2023-05-21T02:55:36.182Z,101066.16
2023-05-21T02:58:02.979Z,101068.12
2023-05-21T03:00:29.568Z,101073.24
2023-05-21T03:02:56.719Z,101072.23
2023-05-21T03:05:24.425Z,101076.58
2023-05-21T03:07:51.469Z,101074.29
2023-05-21T03:10:18.225Z,101072.53
2023-05-21T03:12:44.850Z,101068.78
2023-05-21T03:15:14.880Z,101073.16
2023-05-21T03:17:44.433Z,101067.59
2023-05-21T03:20:17.140Z,101067.25
2023-05-21T03:22:46.670Z,101063.47
2023-05-21T03:25:13.512Z,101063.52
2023-05-21T03:27:40.420Z,101061.23
2023-05-21T03:30:13.370Z,101062.45
2023-05-21T03:32:54.243Z,101061.25
2023-05-21T03:35:20.978Z,101064.42
2023-05-21T03:37:47.827Z,101065.38
2023-05-21T03:40:14.610Z,101065.21
2023-05-21T03:42:41.307Z,101064.36
2023-05-21T03:45:08.484Z,101059.88
2023-05-21T03:48:02.050Z,101055.14
2023-05-21T03:50:29.914Z,101051.59
2023-05-21T03:52:57.758Z,101054.71
2023-05-21T03:55:24.314Z,101059.35
2023-05-21T03:57:50.890Z,101060.07
2023-05-21T04:00:17.900Z,101056.72
2023-05-21T04:02:47.003Z,101054.94
2023-05-21T04:05:15.983Z,101052.55
2023-05-21T04:07:43.070Z,101053.18
2023-05-21T04:10:09.831Z,101053.63
2023-05-21T04:12:36.456Z,101054.98
2023-05-21T04:15:04.647Z,101053.98
2023-05-21T04:17:31.372Z,101051.40
2023-05-21T04:19:58.017Z,101050.38
2023-05-21T04:22:26.723Z,101046.71
2023-05-21T04:24:54.662Z,101044.90
2023-05-21T04:27:26.103Z,101042.69
2023-05-21T04:29:54.821Z,101044.44
2023-05-21T04:32:22.163Z,101044.65
2023-05-21T04:34:48.777Z,101036.24
2023-05-21T04:37:17.954Z,101039.27
2023-05-21T04:39:45.544Z,101039.33
2023-05-21T04:42:12.334Z,101034.13
2023-05-21T04:44:40.454Z,101029.30
2023-05-21T04:47:07.991Z,101027.11
2023-05-21T04:49:36.037Z,101028.31
2023-05-21T04:52:02.687Z,101028.64
2023-05-21T04:54:29.293Z,101028.42
2023-05-21T04:56:55.931Z,101028.08
2023-05-21T04:59:22.901Z,101029.08
2023-05-21T05:01:49.590Z,101024.72
2023-05-21T05:04:16.328Z,101025.98
2023-05-21T05:06:43.042Z,101028.74
2023-05-21T05:09:09.682Z,101026.98
2023-05-21T05:11:36.501Z,101028.33
2023-05-21T05:14:03.911Z,101029.62
2023-05-21T05:16:31.325Z,101028.86
2023-05-21T05:18:58.026Z,101031.03
2023-05-21T05:21:25.130Z,101032.05
2023-05-21T05:23:52.046Z,101034.27
2023-05-21T05:26:19.961Z,101031.37
2023-05-21T05:28:46.859Z,101031.88
2023-05-21T05:31:14.055Z,101028.25
2023-05-21T05:33:42.326Z,101030.54
2023-05-21T05:36:09.004Z,101029.29
2023-05-21T05:38:36.218Z,101026.77
2023-05-21T05:41:03.050Z,101026.19
2023-05-21T05:43:29.712Z,101025.25
2023-05-21T05:45:57.745Z,101021.88
2023-05-21T05:48:24.419Z,101018.59
2023-05-21T05:50:54.786Z,101023.19
2023-05-21T05:53:22.092Z,101021.78
2023-05-21T05:55:48.679Z,101022.36
2023-05-21T05:58:15.488Z,101023.40
2023-05-21T06:00:49.552Z,101023.61
2023-05-21T06:03:16.309Z,101026.16
2023-05-21T06:05:43.214Z,101026.36
2023-05-21T06:08:10.308Z,101026.52
2023-05-21T06:10:36.877Z,101020.17
2023-05-21T06:13:03.526Z,101022.60
2023-05-21T06:15:30.332Z,101023.03
2023-05-21T06:17:57.020Z,101020.43
2023-05-21T06:20:23.755Z,101023.28
2023-05-21T06:22:50.522Z,101024.02
2023-05-21T06:25:18.290Z,101022.96
2023-05-21T06:27:44.985Z,101023.61
2023-05-21T06:30:17.439Z,101022.19
2023-05-21T06:32:44.599Z,101021.39
2023-05-21T06:35:11.346Z,101022.02
2023-05-21T06:37:38.911Z,101019.60
2023-05-21T06:40:06.551Z,101020.83
2023-05-21T06:42:34.071Z,101015.95
2023-05-21T06:45:26.572Z,101009.77
2023-05-21T06:47:58.097Z,101012.00
2023-05-21T06:50:24.798Z,101010.64
2023-05-21T06:52:51.672Z,101009.08
2023-05-21T06:55:18.330Z,101007.14
2023-05-21T06:58:01.088Z,101006.02
2023-05-21T07:00:27.880Z,101002.04
2023-05-21T07:02:54.671Z,101000.98
2023-05-21T07:05:21.331Z,101005.10
2023-05-21T07:07:47.971Z,100998.58
2023-05-21T07:10:14.587Z,100997.45
2023-05-21T07:12:41.967Z,100996.15
2023-05-21T07:15:09.695Z,100995.98
2023-05-21T07:17:37.524Z,101000.77
2023-05-21T07:20:07.969Z,100999.13
2023-05-21T07:22:34.970Z,100997.58
2023-05-21T07:25:01.896Z,100994.53
2023-05-21T07:27:28.622Z,100996.20
2023-05-21T07:29:55.877Z,100996.65
2023-05-21T07:32:22.906Z,100997.80
2023-05-21T07:34:49.574Z,100999.39
2023-05-21T07:37:16.199Z,101000.13
2023-05-21T07:39:42.831Z,101002.84
2023-05-21T07:42:10.972Z,100999.04
2023-05-21T07:44:37.736Z,100999.52
2023-05-21T07:47:05.018Z,100996.94
2023-05-21T07:49:32.129Z,100993.34
2023-05-21T07:51:58.957Z,100998.02
2023-05-21T07:54:26.416Z,100994.21
2023-05-21T07:56:53.506Z,100990.44
2023-05-21T07:59:45.718Z,100982.73
2023-05-21T08:02:12.402Z,100987.23
2023-05-21T08:04:41.097Z,100981.47
2023-05-21T08:07:09.888Z,100983.45
2023-05-21T08:09:36.884Z,100978.85
2023-05-21T08:12:04.397Z,100975.73
2023-05-21T08:14:31.161Z,100975.39
2023-05-21T08:16:58.469Z,100980.13
2023-05-21T08:19:25.127Z,100978.16
2023-05-21T08:21:52.950Z,100978.64
2023-05-21T08:24:20.494Z,100973.02
2023-05-21T08:26:49.586Z,100973.66
2023-05-21T08:29:16.319Z,100976.22
2023-05-21T08:31:43.138Z,100966.58
2023-05-21T08:34:09.862Z,100964.09
2023-05-21T08:36:47.068Z,100964.35
2023-05-21T08:39:32.822Z,100963.31
2023-05-21T08:42:08.439Z,100960.51
2023-05-21T08:44:39.267Z,100957.09
2023-05-21T08:47:10.697Z,100958.66
2023-05-21T08:49:37.543Z,100956.02
2023-05-21T08:52:06.282Z,100959.40
2023-05-21T08:54:33.675Z,100960.44
2023-05-21T08:57:02.604Z,100964.96
2023-05-21T08:59:29.277Z,100959.98
2023-05-21T09:01:57.705Z,100959.39
2023-05-21T09:04:29.128Z,100953.80
2023-05-21T09:06:58.063Z,100951.09
2023-05-21T09:09:57.681Z,100954.20
2023-05-21T09:12:28.588Z,100955.54
2023-05-21T09:14:58.368Z,100951.68
2023-05-21T09:17:29.308Z,100952.73
2023-05-21T09:20:15.984Z,100956.21
2023-05-21T09:22:49.025Z,100951.70
2023-05-21T09:25:30.017Z,100955.50
2023-05-21T09:27:59.990Z,100951.70
2023-05-21T09:30:30.545Z,100948.09
2023-05-21T09:33:00.262Z,100946.28
2023-05-21T09:35:27.059Z,100944.80
2023-05-21T09:37:54.051Z,100943.15
2023-05-21T09:40:22.686Z,100947.95
2023-05-21T09:42:51.372Z,100944.34
2023-05-21T09:45:22.592Z,100943.10
2023-05-21T09:47:51.039Z,100937.95
2023-05-21T09:50:31.571Z,100935.61
2023-05-21T09:52:58.640Z,100935.92
2023-05-21T09:55:26.992Z,100934.59
2023-05-21T09:57:53.734Z,100931.48
2023-05-21T10:00:27.285Z,100931.63
2023-05-21T10:02:55.838Z,100931.86
2023-05-21T10:05:26.429Z,100926.60
2023-05-21T10:07:56.335Z,100932.73
2023-05-21T10:10:23.796Z,100933.24
2023-05-21T10:13:03.761Z,100928.73
2023-05-21T10:15:35.378Z,100929.80
2023-05-21T10:18:03.662Z,100932.38
2023-05-21T10:20:30.880Z,100934.14
2023-05-21T10:22:59.060Z,100928.95
2023-05-21T10:25:26.547Z,100925.50
2023-05-21T10:27:56.085Z,100923.00
2023-05-21T10:30:26.987Z,100920.90
2023-05-21T10:32:56.094Z,100922.27
2023-05-21T10:35:23.079Z,100920.38
2023-05-21T10:37:52.168Z,100916.21
2023-05-21T10:40:18.680Z,100917.11
2023-05-21T10:43:02.630Z,100911.94
2023-05-21T10:45:50.984Z,100910.73
2023-05-21T10:48:48.551Z,100913.33
2023-05-21T10:51:50.116Z,100909.98
2023-05-21T10:54:22.878Z,100908.93
2023-05-21T10:57:08.863Z,100911.42
2023-05-21T10:59:43.272Z,100910.89
2023-05-21T11:02:12.925Z,100906.85
2023-05-21T11:04:43.295Z,100906.64
2023-05-21T11:07:12.032Z,100902.50
2023-05-21T11:09:38.959Z,100901.73
2023-05-21T11:12:08.151Z,100899.56
2023-05-21T11:14:39.645Z,100894.05
2023-05-21T11:17:06.717Z,100896.14
2023-05-21T11:19:39.888Z,100892.55
2023-05-21T11:22:27.089Z,100891.59
2023-05-21T11:24:55.776Z,100888.54
2023-05-21T11:27:37.526Z,100882.11
2023-05-21T11:30:24.431Z,100878.29
2023-05-21T11:33:13.894Z,100880.46
2023-05-21T11:35:49.934Z,100871.75
2023-05-21T11:38:18.178Z,100873.74
2023-05-21T11:40:55.303Z,100877.04
2023-05-21T11:43:22.331Z,100871.77
2023-05-21T11:45:52.312Z,100868.63
2023-05-21T11:48:26.876Z,100866.14
2023-05-21T11:50:54.532Z,100865.67
2023-05-21T11:53:21.218Z,100866.73
2023-05-21T11:55:47.963Z,100867.69
2023-05-21T11:58:16.565Z,100869.02
2023-05-21T12:00:43.362Z,100867.63
2023-05-21T12:03:13.947Z,100864.94
2023-05-21T12:05:48.179Z,100870.40
2023-05-21T12:08:25.525Z,100863.48
2023-05-21T12:11:00.013Z,100862.04
2023-05-21T12:13:27.136Z,100860.06
2023-05-21T12:15:56.580Z,100863.91
2023-05-21T12:18:23.293Z,100865.64
2023-05-21T12:20:52.026Z,100862.13
2023-05-21T12:23:25.752Z,100864.84
2023-05-21T12:25:53.820Z,100860.89
2023-05-21T12:28:22.082Z,100853.39
2023-05-21T12:30:48.754Z,100859.37
2023-05-21T12:33:17.996Z,100858.77
2023-05-21T12:35:50.019Z,100857.06
2023-05-21T12:38:17.015Z,100850.94
2023-05-21T12:40:45.494Z,100857.95
2023-05-21T12:43:12.475Z,100857.28
2023-05-21T12:45:42.204Z,100852.44
2023-05-21T12:48:09.422Z,100855.93
2023-05-21T12:50:40.483Z,100852.45
2023-05-21T12:53:09.379Z,100850.27
2023-05-21T12:55:36.050Z,100853.83
2023-05-21T12:58:05.631Z,100850.65
2023-05-21T13:00:33.126Z,100850.47
2023-05-21T13:03:01.251Z,100846.70
2023-05-21T13:05:28.061Z,100848.35
2023-05-21T13:07:54.621Z,100846.30
2023-05-21T13:10:21.867Z,100835.87
2023-05-21T13:12:48.554Z,100831.87
2023-05-21T13:15:18.652Z,100833.36
2023-05-21T13:17:46.858Z,100832.29
2023-05-21T13:20:17.608Z,100835.57
2023-05-21T13:22:48.878Z,100834.77
2023-05-21T13:25:20.237Z,100832.54
2023-05-21T13:27:48.940Z,100830.98
2023-05-21T13:30:16.148Z,100830.98
2023-05-21T13:32:43.731Z,100823.80
2023-05-21T13:35:13.348Z,100825.72
2023-05-21T13:37:40.803Z,100824.56
2023-05-21T13:40:11.119Z,100820.87
2023-05-21T13:42:41.277Z,100817.30
2023-05-21T13:45:10.557Z,100822.91
2023-05-21T13:47:40.242Z,100824.89
2023-05-21T13:50:09.100Z,100821.09
2023-05-21T13:52:36.380Z,100822.27
2023-05-21T13:55:03.679Z,100821.86
2023-05-21T13:57:30.963Z,100819.46
2023-05-21T13:59:58.732Z,100822.41
2023-05-21T14:02:26.536Z,100819.66
2023-05-21T14:04:53.789Z,100817.56
2023-05-21T14:07:20.585Z,100813.05
2023-05-21T14:09:47.750Z,100810.46
2023-05-21T14:12:14.377Z,100806.68
2023-05-21T14:14:41.530Z,100811.46
2023-05-21T14:17:08.446Z,100814.58
2023-05-21T14:19:35.186Z,100813.59
2023-05-21T14:22:02.125Z,100814.46
2023-05-21T14:24:28.819Z,100814.77
2023-05-21T14:26:55.538Z,100813.14
2023-05-21T14:29:22.188Z,100810.84
2023-05-21T14:31:48.858Z,100805.63
2023-05-21T14:34:15.536Z,100806.41
2023-05-21T14:36:42.192Z,100812.66
2023-05-21T14:39:08.779Z,100811.39
2023-05-21T14:41:39.702Z,100811.13
2023-05-21T14:44:06.555Z,100805.05
2023-05-21T14:46:33.281Z,100805.38
2023-05-21T14:49:00.689Z,100808.52
2023-05-21T14:51:27.499Z,100806.04
2023-05-21T14:53:54.242Z,100802.98
2023-05-21T14:56:22.112Z,100795.56
2023-05-21T14:58:48.898Z,100792.14
2023-05-21T15:01:15.581Z,100794.32
2023-05-21T15:03:42.299Z,100795.17
2023-05-21T15:06:09.179Z,100793.20
2023-05-21T15:08:35.886Z,100795.91
2023-05-21T15:11:02.583Z,100795.15
2023-05-21T15:13:29.594Z,100791.85
2023-05-21T15:15:56.422Z,100790.56
2023-05-21T15:18:24.757Z,100788.31
2023-05-21T15:20:51.895Z,100787.56
2023-05-21T15:23:18.647Z,100785.48
2023-05-21T15:25:45.729Z,100785.05
2023-05-21T15:28:13.005Z,100783.77
2023-05-21T15:30:40.281Z,100786.41
2023-05-21T15:33:07.007Z,100783.79
2023-05-21T15:35:35.549Z,100784.83
2023-05-21T15:38:02.841Z,100780.44
2023-05-21T15:40:29.645Z,100780.77
2023-05-21T15:42:56.369Z,100777.70
2023-05-21T15:45:25.300Z,100777.06
2023-05-21T15:47:51.954Z,100776.09
2023-05-21T15:50:18.785Z,100776.57
2023-05-21T15:52:45.388Z,100778.50
2023-05-21T15:55:12.041Z,100780.70
2023-05-21T15:57:38.688Z,100777.55
2023-05-21T16:00:06.297Z,100775.83
2023-05-21T16:02:35.576Z,100777.23
2023-05-21T16:05:02.461Z,100778.59
2023-05-21T16:07:29.057Z,100777.48
2023-05-21T16:09:55.702Z,100773.67
2023-05-21T16:12:22.545Z,100771.52
2023-05-21T16:14:52.355Z,100769.40
2023-05-21T16:17:21.626Z,100766.48
2023-05-21T16:19:48.370Z,100768.34
2023-05-21T16:22:15.180Z,100766.41
2023-05-21T16:24:41.777Z,100769.81
2023-05-21T16:27:08.438Z,100770.32
2023-05-21T16:29:35.303Z,100772.27
2023-05-21T16:32:02.013Z,100772.87
2023-05-21T16:34:28.636Z,100769.83
2023-05-21T16:36:55.403Z,100768.05
2023-05-21T16:39:22.540Z,100767.00
2023-05-21T16:41:49.208Z,100764.89
2023-05-21T16:44:15.967Z,100765.21
2023-05-21T16:46:42.794Z,100767.96
2023-05-21T16:49:09.475Z,100767.27
2023-05-21T16:51:36.295Z,100766.71
2023-05-21T16:54:04.775Z,100765.06
2023-05-21T16:56:31.523Z,100765.95
2023-05-21T16:58:58.299Z,100767.58
2023-05-21T17:01:25.095Z,100768.55
2023-05-21T17:03:51.920Z,100769.45
2023-05-21T17:06:18.669Z,100766.45
2023-05-21T17:08:45.482Z,100768.70
2023-05-21T17:11:12.125Z,100766.41
2023-05-21T17:13:38.716Z,100765.38
2023-05-21T17:16:05.504Z,100768.65
2023-05-21T17:18:32.259Z,100768.26
2023-05-21T17:20:59.096Z,100770.31
2023-05-21T17:23:25.728Z,100767.85
2023-05-21T17:25:52.674Z,100766.11
2023-05-21T17:28:19.415Z,100764.52
2023-05-21T17:30:48.700Z,100762.70
2023-05-21T17:33:16.373Z,100759.44
2023-05-21T17:35:43.357Z,100756.34
2023-05-21T17:38:10.469Z,100758.97
2023-05-21T17:40:37.238Z,100760.65
2023-05-21T17:43:05.100Z,100760.64
2023-05-21T17:45:31.947Z,100758.97
2023-05-21T17:48:00.466Z,100762.94
2023-05-21T17:50:28.564Z,100759.13
2023-05-21T17:52:55.534Z,100760.23
2023-05-21T17:55:22.188Z,100762.30
2023-05-21T17:57:48.882Z,100758.02
2023-05-21T18:00:15.795Z,100756.87
2023-05-21T18:02:42.502Z,100758.19
2023-05-21T18:05:09.330Z,100757.92
2023-05-21T18:07:37.564Z,100758.67
2023-05-21T18:10:04.528Z,100758.64
2023-05-21T18:12:31.204Z,100759.63
2023-05-21T18:14:58.465Z,100753.99
2023-05-21T18:17:25.340Z,100755.09
2023-05-21T18:19:52.015Z,100755.86
2023-05-21T18:22:18.867Z,100756.96
2023-05-21T18:24:46.312Z,100756.35
2023-05-21T18:27:13.580Z,100758.05
2023-05-21T18:29:40.387Z,100762.98
2023-05-21T18:32:07.728Z,100762.34
2023-05-21T18:34:34.567Z,100762.82
2023-05-21T18:37:01.205Z,100761.08
2023-05-21T18:39:28.141Z,100759.19
2023-05-21T18:42:11.465Z,100759.90
2023-05-21T18:44:38.784Z,100763.84
2023-05-21T18:47:06.099Z,100762.38
2023-05-21T18:49:35.293Z,100762.25
2023-05-21T18:52:01.990Z,100758.88
2023-05-21T18:54:28.618Z,100760.59
2023-05-21T18:56:55.269Z,100762.23
2023-05-21T18:59:21.872Z,100765.23
2023-05-21T19:01:48.536Z,100767.82
2023-05-21T19:04:16.271Z,100773.88
2023-05-21T19:06:43.087Z,100776.45
2023-05-21T19:09:09.721Z,100776.45
2023-05-21T19:11:37.485Z,100778.38
2023-05-21T19:14:04.969Z,100776.07
2023-05-21T19:16:31.650Z,100774.60
2023-05-21T19:18:58.840Z,100773.95
2023-05-21T19:21:25.861Z,100772.54
2023-05-21T19:23:53.602Z,100773.59
2023-05-21T19:26:24.268Z,100775.57
2023-05-21T19:28:53.884Z,100776.02
2023-05-21T19:31:21.959Z,100775.45
2023-05-21T19:33:48.969Z,100779.29
2023-05-21T19:36:16.045Z,100776.91
2023-05-21T19:38:50.210Z,100777.45
2023-05-21T19:41:18.691Z,100778.89
2023-05-21T19:43:46.135Z,100775.40
2023-05-21T19:46:13.545Z,100773.96
2023-05-21T19:48:40.983Z,100778.04
2023-05-21T19:51:07.859Z,100775.78
2023-05-21T19:53:34.937Z,100774.70
2023-05-21T19:56:01.694Z,100774.17
2023-05-21T19:58:30.318Z,100776.27
2023-05-21T20:00:59.380Z,100774.02
2023-05-21T20:03:26.649Z,100770.02
2023-05-21T20:05:53.620Z,100770.14
2023-05-21T20:08:20.563Z,100773.36
2023-05-21T20:10:51.437Z,100774.68
2023-05-21T20:13:19.682Z,100773.20
2023-05-21T20:15:48.001Z,100769.55
2023-05-21T20:18:15.461Z,100766.23
2023-05-21T20:20:43.185Z,100766.14
2023-05-21T20:23:10.092Z,100767.13
